Time;durP1;ratioP1;P1;durP2;ratioP2;P2;SDS_P1;SDS_P2;PMS_P1;PMS_P2;Temp;Humidity;BMP_temperature;BMP_pressure;BME280_temperature;BME280_humidity;BME280_pressure;Samples;Min_cycle;Max_cycle;Signal;HPM_P1;HPM_P2
2023/04/05 00:00:58;;;;;;;;;;;;;;;;;;4983881;28;20021;-73
2023/04/05 00:03:29;;;;;;;;;;;;;;;;;;4986353;28;19948;-72
2023/04/05 00:05:54;;;;;;;;;;;;;;;;;;4989465;28;19922;-72
2023/04/05 00:08:27;;;;;;;;;;;;;;;;;;4984165;28;20079;-72
2023/04/05 00:10:55;;;;;;;;;;;;;;;;;;4985073;28;20464;-73
2023/04/05 00:13:20;;;;;;;;;;;;;;;;;;4985734;28;20024;-73
2023/04/05 00:15:46;;;;;;;;;;;;;;;;;;4984259;28;19925;-73
2023/04/05 00:18:20;;;;;;;;;;;;;;;;;;4982732;28;19956;-73
2023/04/05 00:20:48;;;;;;;;;;;;;;;;;;4983732;28;20772;-73
2023/04/05 00:23:16;;;;;;;;;;;;;;;;;;4983982;28;19925;-73
2023/04/05 00:25:41;;;;;;;;;;;;;;;;;;4988865;28;19955;-73
2023/04/05 00:28:07;;;;;;;;;;;;;;;;;;4974679;28;19929;-73
2023/04/05 00:30:37;;;;;;;;;;;;;;;;;;4988029;28;19947;-71
2023/04/05 00:33:08;;;;;;;;;;;;;;;;;;4974442;28;20008;-72
2023/04/05 00:35:35;;;;;;;;;;;;;;;;;;4973693;28;19964;-72
2023/04/05 00:38:04;;;;;;;;;;;;;;;;;;4990795;28;19928;-72
2023/04/05 00:40:31;;;;;;;;;;;;;;;;;;4995709;28;19917;-72
2023/04/05 00:42:59;;;;;;;;;;;;;;;;;;4970517;28;20072;-72
2023/04/05 00:45:27;;;;;;;;;;;;;;;;;;4975074;28;19952;-72
2023/04/05 00:47:52;;;;;;;;;;;;;;;;;;4982651;28;19917;-73
2023/04/05 00:50:20;;;;;;;;;;;;;;;;;;4987034;28;19995;-72
2023/04/05 00:52:48;;;;;;;;;;;;;;;;;;4988514;28;20276;-72
2023/04/05 00:55:16;;;;;;;;;;;;;;;;;;4994016;28;19929;-72
2023/04/05 00:57:43;;;;;;;;;;;;;;;;;;4996338;28;19921;-72
2023/04/05 01:00:10;;;;;;;;;;;;;;;;;;4972830;28;20262;-72
2023/04/05 01:02:39;;;;;;;;;;;;;;;;;;4987817;28;20032;-72
2023/04/05 01:05:07;;;;;;;;;;;;;;;;;;4985746;28;19917;-72
2023/04/05 01:07:32;;;;;;;;;;;;;;;;;;4985878;28;19987;-72
2023/04/05 01:10:00;;;;;;;;;;;;;;;;;;4979718;28;20328;-73
2023/04/05 01:12:31;;;;;;;;;;;;;;;;;;4974498;28;19917;-73
2023/04/05 01:14:59;;;;;;;;;;;;;;;;;;4996381;28;19925;-74
2023/04/05 01:17:27;;;;;;;;;;;;;;;;;;4967365;28;19929;-74
2023/04/05 01:19:58;;;;;;;;;;;;;;;;;;4989479;28;20256;-74
2023/04/05 01:22:25;;;;;;;;;;;;;;;;;;4986461;28;20707;-74
2023/04/05 01:24:56;;;;;;;;;;;;;;;;;;4978366;28;20251;-74
2023/04/05 01:27:24;;;;;;;;;;;;;;;;;;4986285;28;20071;-74
2023/04/05 01:29:50;;;;;;;;;;;;;;;;;;4987688;28;19917;-74
2023/04/05 01:32:15;;;;;;;;;;;;;;;;;;4988244;28;19928;-75
2023/04/05 01:34:43;;;;;;;;;;;;;;;;;;4989143;28;19944;-75
2023/04/05 01:37:11;;;;;;;;;;;;;;;;;;4987051;28;20000;-74
2023/04/05 01:39:36;;;;;;;;;;;;;;;;;;4984432;28;19941;-74
2023/04/05 01:42:01;;;;;;;;;;;;;;;;;;4989258;28;19967;-73
2023/04/05 01:44:30;;;;;;;;;;;;;;;;;;4986866;28;19928;-74
2023/04/05 01:46:58;;;;;;;;;;;;;;;;;;4989204;28;20285;-74
2023/04/05 01:49:23;;;;;;;;;;;;;;;;;;4987443;28;19917;-74
2023/04/05 01:51:56;;;;;;;;;;;;;;;;;;4971469;28;19932;-74
2023/04/05 01:54:21;;;;;;;;;;;;;;;;;;4972932;28;19921;-74
2023/04/05 01:56:46;;;;;;;;;;;;;;;;;;4968778;28;19921;-74
2023/04/05 01:59:14;;;;;;;;;;;;;;;;;;4986009;28;19921;-75
2023/04/05 02:01:42;;;;;;;;;;;;;;;;;;4973692;28;19926;-74
2023/04/05 02:04:07;;;;;;;;;;;;;;;;;;4980423;28;19921;-74
2023/04/05 02:06:33;;;;;;;;;;;;;;;;;;4976272;28;20456;-74
2023/04/05 02:08:58;;;;;;;;;;;;;;;;;;4987908;28;19922;-75
2023/04/05 02:11:28;;;;;;;;;;;;;;;;;;4985571;28;20294;-75
2023/04/05 02:13:54;;;;;;;;;;;;;;;;;;4979161;28;19963;-75
2023/04/05 02:16:22;;;;;;;;;;;;;;;;;;4969171;28;19922;-75
2023/04/05 02:18:49;;;;;;;;;;;;;;;;;;4987268;28;20039;-74
2023/04/05 02:21:17;;;;;;;;;;;;;;;;;;4981898;28;20441;-74
2023/04/05 02:23:45;;;;;;;;;;;;;;;;;;4969432;28;20659;-74
2023/04/05 02:26:10;;;;;;;;;;;;;;;;;;4983875;28;20816;-75
2023/04/05 02:28:38;;;;;;;;;;;;;;;;;;4971072;28;21494;-74
2023/04/05 02:31:06;;;;;;;;;;;;;;;;;;4971668;28;19928;-74
2023/04/05 02:33:33;;;;;;;;;;;;;;;;;;5001042;28;19921;-75
2023/04/05 02:35:59;;;;;;;;;;;;;;;;;;4986005;28;20093;-75
2023/04/05 02:38:24;;;;;;;;;;;;;;;;;;4994751;28;19922;-75
2023/04/05 02:40:50;;;;;;;;;;;;;;;;;;4987102;28;19921;-75
2023/04/05 02:43:15;;;;;;;;;;;;;;;;;;4984599;28;19929;-75
2023/04/05 02:45:41;;;;;;;;;;;;;;;;;;4987064;28;19917;-75
2023/04/05 02:48:06;;;;;;;;;;;;;;;;;;4980539;28;19968;-75
2023/04/05 02:50:31;;;;;;;;;;;;;;;;;;4985798;28;20453;-75
2023/04/05 02:52:57;;;;;;;;;;;;;;;;;;4971825;28;20622;-75
2023/04/05 02:55:22;;;;;;;;;;;;;;;;;;4972827;28;19967;-74
2023/04/05 02:57:47;;;;;;;;;;;;;;;;;;4985426;28;19921;-74
2023/04/05 03:00:13;;;;;;;;;;;;;;;;;;4987059;28;20416;-75
2023/04/05 03:02:41;;;;;;;;;;;;;;;;;;4984324;28;19913;-74
2023/04/05 03:05:06;;;;;;;;;;;;;;;;;;4987838;28;19921;-74
2023/04/05 03:07:32;;;;;;;;;;;;;;;;;;4975357;28;19917;-73
2023/04/05 03:09:58;;;;;;;;;;;;;;;;;;4986573;28;19975;-73
2023/04/05 03:12:23;;;;;;;;;;;;;;;;;;4985780;28;20400;-74
2023/04/05 03:14:49;;;;;;;;;;;;;;;;;;4986712;28;19932;-74
2023/04/05 03:17:14;;;;;;;;;;;;;;;;;;4990927;28;19957;-74
2023/04/05 03:19:39;;;;;;;;;;;;;;;;;;4969254;28;20309;-74
2023/04/05 03:22:04;;;;;;;;;;;;;;;;;;4986521;28;20016;-73
2023/04/05 03:24:30;;;;;;;;;;;;;;;;;;4973905;28;20016;-76
2023/04/05 03:26:58;;;;;;;;;;;;;;;;;;4985417;28;21911;-73
2023/04/05 03:29:24;;;;;;;;;;;;;;;;;;4993737;28;19921;-75
2023/04/05 03:31:49;;;;;;;;;;;;;;;;;;4985739;28;19921;-74
2023/04/05 03:34:15;;;;;;;;;;;;;;;;;;4984621;28;19925;-74
2023/04/05 03:36:44;;;;;;;;;;;;;;;;;;4969736;28;19925;-74
2023/04/05 03:39:09;;;;;;;;;;;;;;;;;;4985427;28;20599;-74
2023/04/05 03:41:35;;;;;;;;;;;;;;;;;;4986532;28;19929;-74
2023/04/05 03:44:00;;;;;;;;;;;;;;;;;;4994217;28;20029;-74
2023/04/05 03:46:25;;;;;;;;;;;;;;;;;;4984915;28;19979;-75
2023/04/05 03:48:51;;;;;;;;;;;;;;;;;;4985975;28;19928;-75
2023/04/05 03:51:17;;;;;;;;;;;;;;;;;;4985909;28;19939;-75
2023/04/05 03:53:43;;;;;;;;;;;;;;;;;;4991008;28;19925;-74
2023/04/05 03:56:08;;;;;;;;;;;;;;;;;;4981666;28;22148;-76
2023/04/05 03:58:33;;;;;;;;;;;;;;;;;;4984720;28;19926;-74
2023/04/05 04:00:59;;;;;;;;;;;;;;;;;;4974894;28;19924;-74
2023/04/05 04:03:24;;;;;;;;;;;;;;;;;;4993461;28;19945;-75
2023/04/05 04:05:50;;;;;;;;;;;;;;;;;;4984881;28;19917;-75
2023/04/05 04:08:15;;;;;;;;;;;;;;;;;;4993005;28;20348;-74
2023/04/05 04:10:41;;;;;;;;;;;;;;;;;;4975036;28;20001;-75
2023/04/05 04:13:06;;;;;;;;;;;;;;;;;;4982987;28;19985;-74
2023/04/05 04:15:31;;;;;;;;;;;;;;;;;;4984337;28;20865;-74
2023/04/05 04:17:56;;;;;;;;;;;;;;;;;;4985052;28;19960;-74
2023/04/05 04:20:22;;;;;;;;;;;;;;;;;;4984801;28;19929;-74
2023/04/05 04:22:47;;;;;;;;;;;;;;;;;;4984925;28;20000;-75
2023/04/05 04:25:13;;;;;;;;;;;;;;;;;;4982232;28;19921;-74
2023/04/05 04:27:38;;;;;;;;;;;;;;;;;;4983241;28;19922;-75
2023/04/05 04:30:04;;;;;;;;;;;;;;;;;;4985507;28;19921;-74
2023/04/05 04:35:16;;;;;;;;;;;;;;;;;;4986063;28;19925;-75
2023/04/05 04:37:45;;;;;;;;;;;;;;;;;;4983147;28;20897;-75
2023/04/05 04:40:11;;;;;;;;;;;;;;;;;;4989997;28;20503;-75
2023/04/05 04:42:37;;;;;;;;;;;;;;;;;;4977081;28;19929;-75
2023/04/05 04:45:03;;;;;;;;;;;;;;;;;;4990668;28;19917;-75
2023/04/05 04:47:29;;;;;;;;;;;;;;;;;;4982933;28;20358;-75
2023/04/05 04:49:56;;;;;;;;;;;;;;;;;;4997592;28;19922;-77
2023/04/05 04:52:21;;;;;;;;;;;;;;;;;;4978151;28;19917;-76
2023/04/05 04:54:46;;;;;;;;;;;;;;;;;;4969358;28;20835;-75
2023/04/05 04:57:11;;;;;;;;;;;;;;;;;;4987633;28;20419;-76
2023/04/05 04:59:37;;;;;;;;;;;;;;;;;;4968586;28;20618;-75
2023/04/05 05:02:02;;;;;;;;;;;;;;;;;;4975302;28;19921;-75
2023/04/05 05:04:27;;;;;;;;;;;;;;;;;;4976952;28;19956;-75
2023/04/05 05:06:53;;;;;;;;;;;;;;;;;;4984368;28;21767;-75
2023/04/05 05:09:18;;;;;;;;;;;;;;;;;;4986173;28;19987;-75
2023/04/05 05:11:43;;;;;;;;;;;;;;;;;;4988202;28;19917;-75
2023/04/05 05:14:09;;;;;;;;;;;;;;;;;;4991955;28;19926;-74
2023/04/05 05:16:34;;;;;;;;;;;;;;;;;;5010050;28;19924;-75
2023/04/05 05:19:00;;;;;;;;;;;;;;;;;;5009280;28;19913;-73
2023/04/05 05:21:26;;;;;;;;;;;;;;;;;;5015836;28;20360;-74
2023/04/05 05:23:52;;;;;;;;;;;;;;;;;;4993879;28;19921;-75
2023/04/05 05:26:17;;;;;;;;;;;;;;;;;;5016583;28;19925;-75
2023/04/05 05:28:44;;;;;;;;;;;;;;;;;;5009012;28;20003;-75
2023/04/05 05:31:11;;;;;;;;;;;;;;;;;;5013191;28;20204;-75
2023/04/05 05:33:36;;;;;;;;;;;;;;;;;;5017035;28;19913;-75
2023/04/05 05:36:04;;;;;;;;;;;;;;;;;;5001585;28;20384;-75
2023/04/05 05:38:29;;;;;;;;;;;;;;;;;;4989832;28;20420;-75
2023/04/05 05:40:55;;;;;;;;;;;;;;;;;;5002436;28;20051;-73
2023/04/05 05:43:20;;;;;;;;;;;;;;;;;;5003405;28;19948;-75
2023/04/05 05:45:47;;;;;;;;;;;;;;;;;;5000165;28;20067;-71
2023/04/05 05:48:12;;;;;;;;;;;;;;;;;;5002339;28;19960;-73
2023/04/05 05:50:38;;;;;;;;;;;;;;;;;;5009973;28;19921;-76
2023/04/05 05:53:03;;;;;;;;;;;;;;;;;;5005073;28;19917;-73
2023/04/05 05:55:31;;;;;;;;;;;;;;;;;;4989172;28;20008;-73
2023/04/05 05:57:57;;;;;;;;;;;;;;;;;;5001324;28;19939;-73
2023/04/05 06:00:22;;;;;;;;;;;;;;;;;;4985156;28;19925;-73
2023/04/05 06:02:48;;;;;;;;;;;;;;;;;;4998735;28;19914;-73
2023/04/05 06:05:13;;;;;;;;;;;;;;;;;;4999066;28;19993;-72
2023/04/05 06:07:39;;;;;;;;;;;;;;;;;;5002973;28;20484;-74
2023/04/05 06:10:05;;;;;;;;;;;;;;;;;;5007140;28;20143;-74
2023/04/05 06:12:30;;;;;;;;;;;;;;;;;;4994165;28;19922;-70
2023/04/05 06:14:55;;;;;;;;;;;;;;;;;;4995121;28;21193;-71
2023/04/05 06:17:21;;;;;;;;;;;;;;;;;;5010764;28;19921;-70
2023/04/05 06:19:46;;;;;;;;;;;;;;;;;;4994572;28;19921;-72
2023/04/05 06:22:12;;;;;;;;;;;;;;;;;;4995501;28;19924;-72
2023/04/05 06:24:37;;;;;;;;;;;;;;;;;;4988727;28;19918;-72
2023/04/05 06:27:02;;;;;;;;;;;;;;;;;;4990728;28;19929;-72
2023/04/05 06:29:27;;;;;;;;;;;;;;;;;;4997393;28;19914;-71
2023/04/05 06:31:53;;;;;;;;;;;;;;;;;;4996908;28;19924;-72
2023/04/05 06:34:18;;;;;;;;;;;;;;;;;;4998356;28;19921;-73
2023/04/05 06:36:45;;;;;;;;;;;;;;;;;;4997613;28;19913;-73
2023/04/05 06:39:13;;;;;;;;;;;;;;;;;;4998414;28;19928;-73
2023/04/05 06:41:41;;;;;;;;;;;;;;;;;;4998441;28;20000;-73
2023/04/05 06:44:12;;;;;;;;;;;;;;;;;;5009270;28;19940;-73
2023/04/05 06:46:37;;;;;;;;;;;;;;;;;;5000608;28;20027;-73
2023/04/05 06:49:02;;;;;;;;;;;;;;;;;;4995494;28;20000;-74
2023/04/05 06:51:30;;;;;;;;;;;;;;;;;;5000900;28;20448;-71
2023/04/05 06:53:55;;;;;;;;;;;;;;;;;;5013801;28;19926;-73
2023/04/05 06:56:22;;;;;;;;;;;;;;;;;;4998305;28;20684;-73
2023/04/05 06:58:50;;;;;;;;;;;;;;;;;;4996196;28;19928;-74
2023/04/05 07:01:18;;;;;;;;;;;;;;;;;;4982219;28;19970;-72
2023/04/05 07:03:44;;;;;;;;;;;;;;;;;;4997243;28;19921;-73
2023/04/05 07:06:10;;;;;;;;;;;;;;;;;;4979381;28;19913;-73
2023/04/05 07:08:41;;;;;;;;;;;;;;;;;;4998030;28;20003;-72
2023/04/05 07:11:06;;;;;;;;;;;;;;;;;;4998692;28;20346;-72
2023/04/05 07:13:34;;;;;;;;;;;;;;;;;;4978414;28;20047;-72
2023/04/05 07:16:02;;;;;;;;;;;;;;;;;;4994578;28;19972;-71
2023/04/05 07:18:28;;;;;;;;;;;;;;;;;;4996694;28;20052;-71
2023/04/05 07:21:00;;;;;;;;;;;;;;;;;;5001956;28;20054;-70
2023/04/05 07:23:29;;;;;;;;;;;;;;;;;;4991845;28;19922;-70
2023/04/05 07:25:54;;;;;;;;;;;;;;;;;;4977562;28;19928;-70
2023/04/05 07:28:22;;;;;;;;;;;;;;;;;;4991146;28;19963;-70
2023/04/05 07:30:47;;;;;;;;;;;;;;;;;;4993820;28;19922;-70
2023/04/05 07:33:13;;;;;;;;;;;;;;;;;;4979618;28;19913;-69
2023/04/05 07:35:39;;;;;;;;;;;;;;;;;;4976961;28;19956;-69
2023/04/05 07:38:06;;;;;;;;;;;;;;;;;;4994524;28;20008;-69
2023/04/05 07:40:32;;;;;;;;;;;;;;;;;;4992788;28;19917;-68
2023/04/05 07:43:00;;;;;;;;;;;;;;;;;;4998523;28;20384;-68
2023/04/05 07:45:26;;;;;;;;;;;;;;;;;;4980994;28;19952;-69
2023/04/05 07:47:54;;;;;;;;;;;;;;;;;;4978498;28;20056;-68
2023/04/05 07:50:19;;;;;;;;;;;;;;;;;;4990495;28;19921;-68
2023/04/05 07:52:47;;;;;;;;;;;;;;;;;;4989825;28;19987;-68
2023/04/05 07:55:16;;;;;;;;;;;;;;;;;;4990159;28;19925;-68
2023/04/05 07:57:43;;;;;;;;;;;;;;;;;;4985064;28;19917;-68
2023/04/05 08:00:15;;;;;;;;;;;;;;;;;;4998250;28;19914;-67
2023/04/05 08:02:40;;;;;;;;;;;;;;;;;;4989979;28;19922;-67
2023/04/05 08:05:08;;;;;;;;;;;;;;;;;;4974526;28;19926;-67
2023/04/05 08:07:36;;;;;;;;;;;;;;;;;;4984712;28;19929;-68
2023/04/05 08:10:01;;;;;;;;;;;;;;;;;;5003737;28;19961;-67
2023/04/05 08:12:26;;;;;;;;;;;;;;;;;;4982095;28;20395;-67
2023/04/05 08:14:52;;;;;;;;;;;;;;;;;;4986395;28;20048;-67
2023/04/05 08:17:18;;;;;;;;;;;;;;;;;;4981583;28;19921;-67
2023/04/05 08:19:43;;;;;;;;;;;;;;;;;;4990064;28;19984;-68
2023/04/05 08:22:08;;;;;;;;;;;;;;;;;;4984903;28;20354;-67
2023/04/05 08:24:33;;;;;;;;;;;;;;;;;;4973731;28;19926;-68
2023/04/05 08:26:59;;;;;;;;;;;;;;;;;;4993810;28;20397;-67
2023/04/05 08:29:27;;;;;;;;;;;;;;;;;;4989198;28;20101;-67
2023/04/05 08:31:57;;;;;;;;;;;;;;;;;;4983282;28;19917;-67
2023/04/05 08:34:26;;;;;;;;;;;;;;;;;;4989205;28;19921;-67
2023/04/05 08:36:51;;;;;;;;;;;;;;;;;;4995883;28;20274;-67
2023/04/05 08:39:19;;;;;;;;;;;;;;;;;;4996010;28;19925;-67
2023/04/05 08:41:45;;;;;;;;;;;;;;;;;;4986693;28;20176;-67
2023/04/05 08:44:10;;;;;;;;;;;;;;;;;;4980606;28;20023;-67
2023/04/05 08:46:35;;;;;;;;;;;;;;;;;;5000219;28;19928;-67
2023/04/05 08:49:01;;;;;;;;;;;;;;;;;;5000081;28;20364;-67
2023/04/05 08:51:30;;;;;;;;;;;;;;;;;;4990903;28;20043;-67
2023/04/05 08:53:55;;;;;;;;;;;;;;;;;;4985378;28;19922;-68
2023/04/05 08:56:23;;;;;;;;;;;;;;;;;;4973713;28;19979;-67
2023/04/05 08:58:49;;;;;;;;;;;;;;;;;;5000060;28;19922;-68
2023/04/05 09:01:15;;;;;;;;;;;;;;;;;;4992767;28;21839;-65
2023/04/05 09:03:41;;;;;;;;;;;;;;;;;;4990100;28;19930;-66
2023/04/05 09:06:07;;;;;;;;;;;;;;;;;;4989518;28;20349;-67
2023/04/05 09:08:32;;;;;;;;;;;;;;;;;;4987431;28;20542;-67
2023/04/05 09:10:57;;;;;;;;;;;;;;;;;;4980635;28;19956;-67
2023/04/05 09:13:22;;;;;;;;;;;;;;;;;;4990435;28;19929;-67
2023/04/05 09:15:48;;;;;;;;;;;;;;;;;;4991971;28;19927;-67
2023/04/05 09:18:16;;;;;;;;;;;;;;;;;;4987687;28;20039;-67
2023/04/05 09:20:41;;;;;;;;;;;;;;;;;;4990637;28;20759;-67
2023/04/05 09:23:09;;;;;;;;;;;;;;;;;;4986331;28;19929;-67
2023/04/05 09:25:35;;;;;;;;;;;;;;;;;;4989115;28;19944;-67
2023/04/05 09:28:03;;;;;;;;;;;;;;;;;;4990918;28;20008;-67
2023/04/05 09:30:28;;;;;;;;;;;;;;;;;;4978544;28;20513;-69
2023/04/05 09:32:56;;;;;;;;;;;;;;;;;;4988261;28;20863;-67
2023/04/05 09:35:21;;;;;;;;;;;;;;;;;;4986780;28;19913;-67
2023/04/05 09:37:46;;;;;;;;;;;;;;;;;;4987110;28;19929;-68
2023/04/05 09:40:13;;;;;;;;;;;;;;;;;;4989269;28;20417;-67
2023/04/05 09:42:41;;;;;;;;;;;;;;;;;;4981617;28;19929;-67
2023/04/05 09:45:09;;;;;;;;;;;;;;;;;;4974481;28;19932;-68
2023/04/05 09:47:34;;;;;;;;;;;;;;;;;;4989397;28;20285;-67
2023/04/05 09:49:59;;;;;;;;;;;;;;;;;;4987479;28;19929;-68
2023/04/05 09:52:27;;;;;;;;;;;;;;;;;;4984340;28;19917;-69
2023/04/05 09:54:54;;;;;;;;;;;;;;;;;;4980414;28;20052;-68
2023/04/05 09:57:19;;;;;;;;;;;;;;;;;;4995343;28;20253;-68
2023/04/05 09:59:45;;;;;;;;;;;;;;;;;;4989839;28;20701;-68
2023/04/05 10:02:12;;;;;;;;;;;;;;;;;;4972794;28;20160;-67
2023/04/05 10:04:40;;;;;;;;;;;;;;;;;;4988001;28;20511;-67
2023/04/05 10:07:08;;;;;;;;;;;;;;;;;;4980419;28;21698;-67
2023/04/05 10:09:36;;;;;;;;;;;;;;;;;;4977861;28;20372;-67
2023/04/05 10:12:01;;;;;;;;;;;;;;;;;;4969204;28;20514;-68
2023/04/05 10:14:29;;;;;;;;;;;;;;;;;;4973403;28;19929;-66
2023/04/05 10:16:59;;;;;;;;;;;;;;;;;;4988396;28;20007;-68
2023/04/05 10:19:25;;;;;;;;;;;;;;;;;;4996100;28;19921;-69
2023/04/05 10:21:50;;;;;;;;;;;;;;;;;;4974119;28;19972;-68
2023/04/05 10:24:18;;;;;;;;;;;;;;;;;;4985542;28;19925;-69
2023/04/05 10:26:43;;;;;;;;;;;;;;;;;;4989510;28;20016;-69
2023/04/05 10:29:12;;;;;;;;;;;;;;;;;;4984979;28;20021;-69
2023/04/05 10:31:42;;;;;;;;;;;;;;;;;;4983533;28;19928;-68
2023/04/05 10:34:07;;;;;;;;;;;;;;;;;;4990589;28;19964;-68
2023/04/05 10:36:38;;;;;;;;;;;;;;;;;;4985695;28;20890;-68
2023/04/05 10:39:04;;;;;;;;;;;;;;;;;;4996036;28;19921;-68
2023/04/05 10:41:34;;;;;;;;;;;;;;;;;;4988030;28;19924;-68
2023/04/05 10:44:00;;;;;;;;;;;;;;;;;;4986978;28;19926;-69
2023/04/05 10:46:25;;;;;;;;;;;;;;;;;;4980069;28;19922;-67
2023/04/05 10:48:50;;;;;;;;;;;;;;;;;;4995087;28;20428;-69
2023/04/05 10:51:16;;;;;;;;;;;;;;;;;;4971988;28;19921;-68
2023/04/05 10:53:41;;;;;;;;;;;;;;;;;;4970999;28;19971;-68
2023/04/05 10:56:09;;;;;;;;;;;;;;;;;;4972776;28;20412;-68
2023/04/05 10:58:34;;;;;;;;;;;;;;;;;;4992275;28;20004;-67
2023/04/05 11:01:00;;;;;;;;;;;;;;;;;;4988652;28;19918;-68
2023/04/05 11:03:25;;;;;;;;;;;;;;;;;;4973078;28;19922;-69
2023/04/05 11:05:51;;;;;;;;;;;;;;;;;;4983510;28;19921;-68
2023/04/05 11:08:16;;;;;;;;;;;;;;;;;;4987903;28;19922;-68
2023/04/05 11:10:44;;;;;;;;;;;;;;;;;;4987233;28;19956;-68
2023/04/05 11:13:12;;;;;;;;;;;;;;;;;;4988935;28;19963;-69
2023/04/05 11:15:37;;;;;;;;;;;;;;;;;;4988813;28;20039;-69
2023/04/05 11:18:03;;;;;;;;;;;;;;;;;;5001713;28;21421;-69
2023/04/05 11:20:30;;;;;;;;;;;;;;;;;;4985646;28;20279;-68
2023/04/05 11:22:58;;;;;;;;;;;;;;;;;;4986538;28;20052;-68
2023/04/05 11:25:26;;;;;;;;;;;;;;;;;;5002611;28;19926;-67
2023/04/05 11:27:51;;;;;;;;;;;;;;;;;;4987876;28;19921;-67
2023/04/05 11:30:17;;;;;;;;;;;;;;;;;;4984480;28;20420;-67
2023/04/05 11:32:42;;;;;;;;;;;;;;;;;;4987257;28;19926;-70
2023/04/05 11:35:07;;;;;;;;;;;;;;;;;;4972127;28;19921;-68
2023/04/05 11:37:33;;;;;;;;;;;;;;;;;;4995253;28;20044;-68
2023/04/05 11:40:00;;;;;;;;;;;;;;;;;;4987897;28;20480;-68
2023/04/05 11:42:26;;;;;;;;;;;;;;;;;;4984918;28;19933;-67
2023/04/05 11:44:53;;;;;;;;;;;;;;;;;;4994088;28;20316;-68
2023/04/05 11:47:22;;;;;;;;;;;;;;;;;;4983924;28;20418;-68
2023/04/05 11:49:47;;;;;;;;;;;;;;;;;;4973670;28;19933;-68
2023/04/05 11:52:14;;;;;;;;;;;;;;;;;;4986326;28;20292;-68
2023/04/05 11:54:44;;;;;;;;;;;;;;;;;;4976072;28;19936;-69
2023/04/05 11:57:10;;;;;;;;;;;;;;;;;;4986299;28;20040;-69
2023/04/05 11:59:35;;;;;;;;;;;;;;;;;;4984159;28;19922;-69
2023/04/05 12:02:01;;;;;;;;;;;;;;;;;;4987581;28;20465;-69
2023/04/05 12:04:29;;;;;;;;;;;;;;;;;;4986663;28;20293;-68
2023/04/05 12:06:57;;;;;;;;;;;;;;;;;;4988350;28;20167;-70
2023/04/05 12:09:24;;;;;;;;;;;;;;;;;;4985458;28;19925;-71
2023/04/05 12:11:50;;;;;;;;;;;;;;;;;;4993963;28;19928;-68
2023/04/05 12:14:18;;;;;;;;;;;;;;;;;;4986396;28;19929;-69
2023/04/05 12:16:43;;;;;;;;;;;;;;;;;;4975277;28;19922;-68
2023/04/05 12:19:11;;;;;;;;;;;;;;;;;;4987207;28;20007;-69
2023/04/05 12:21:36;;;;;;;;;;;;;;;;;;4984517;28;19945;-69
2023/04/05 12:24:01;;;;;;;;;;;;;;;;;;4985322;28;20891;-68
2023/04/05 12:26:27;;;;;;;;;;;;;;;;;;4992828;28;20284;-69
2023/04/05 12:28:55;;;;;;;;;;;;;;;;;;4987642;28;20454;-70
2023/04/05 12:31:23;;;;;;;;;;;;;;;;;;4992870;28;19924;-71
2023/04/05 12:33:51;;;;;;;;;;;;;;;;;;4983205;28;20460;-69
2023/04/05 12:36:22;;;;;;;;;;;;;;;;;;4985077;28;20555;-68
2023/04/05 12:38:47;;;;;;;;;;;;;;;;;;4977297;28;19921;-71
2023/04/05 12:41:12;;;;;;;;;;;;;;;;;;4993041;28;19917;-68
2023/04/05 12:43:40;;;;;;;;;;;;;;;;;;4983554;28;20496;-70
2023/04/05 12:46:08;;;;;;;;;;;;;;;;;;4993416;28;20234;-68
2023/04/05 12:48:36;;;;;;;;;;;;;;;;;;4985784;28;20365;-67
2023/04/05 12:51:02;;;;;;;;;;;;;;;;;;4968903;28;19929;-68
2023/04/05 12:53:27;;;;;;;;;;;;;;;;;;4974302;28;19936;-67
2023/04/05 12:55:55;;;;;;;;;;;;;;;;;;4991442;28;19925;-68
2023/04/05 12:58:23;;;;;;;;;;;;;;;;;;4986892;28;19980;-68
2023/04/05 13:00:51;;;;;;;;;;;;;;;;;;4987587;28;19955;-69
2023/04/05 13:03:18;;;;;;;;;;;;;;;;;;4983478;28;19996;-70
2023/04/05 13:05:46;;;;;;;;;;;;;;;;;;4985646;28;20007;-69
2023/04/05 13:08:14;;;;;;;;;;;;;;;;;;4983763;28;19918;-70
2023/04/05 13:10:44;;;;;;;;;;;;;;;;;;4991503;28;19918;-70
2023/04/05 13:13:10;;;;;;;;;;;;;;;;;;4987400;28;21983;-70
2023/04/05 13:15:35;;;;;;;;;;;;;;;;;;4984322;28;19954;-69
2023/04/05 13:18:00;;;;;;;;;;;;;;;;;;4987158;28;20736;-70
2023/04/05 13:20:26;;;;;;;;;;;;;;;;;;4972463;28;20094;-71
2023/04/05 13:22:56;;;;;;;;;;;;;;;;;;4985173;28;20007;-70
2023/04/05 13:25:22;;;;;;;;;;;;;;;;;;4985876;28;19928;-69
2023/04/05 13:27:47;;;;;;;;;;;;;;;;;;4986050;28;19918;-70
2023/04/05 13:30:15;;;;;;;;;;;;;;;;;;4986482;28;20358;-70
2023/04/05 13:32:40;;;;;;;;;;;;;;;;;;4981873;28;19928;-70
2023/04/05 13:35:08;;;;;;;;;;;;;;;;;;4997166;28;19925;-70
2023/04/05 13:37:33;;;;;;;;;;;;;;;;;;4978347;28;19975;-70
2023/04/05 13:40:02;;;;;;;;;;;;;;;;;;4975742;28;19967;-70
2023/04/05 13:42:29;;;;;;;;;;;;;;;;;;4979551;28;20004;-68
2023/04/05 13:44:57;;;;;;;;;;;;;;;;;;4985892;28;19925;-64
2023/04/05 13:47:25;;;;;;;;;;;;;;;;;;4988095;28;19918;-69
2023/04/05 13:49:53;;;;;;;;;;;;;;;;;;4990191;28;19921;-67
2023/04/05 13:52:21;;;;;;;;;;;;;;;;;;4977999;28;19933;-69
2023/04/05 13:54:46;;;;;;;;;;;;;;;;;;5005752;28;21891;-70
2023/04/05 13:57:13;;;;;;;;;;;;;;;;;;4986202;28;20376;-69
2023/04/05 13:59:41;;;;;;;;;;;;;;;;;;4972839;28;19932;-69
2023/04/05 14:02:06;;;;;;;;;;;;;;;;;;4996604;28;19922;-70
2023/04/05 14:04:32;;;;;;;;;;;;;;;;;;4969670;28;21931;-70
2023/04/05 14:06:57;;;;;;;;;;;;;;;;;;4977177;28;19922;-70
2023/04/05 14:09:22;;;;;;;;;;;;;;;;;;4982735;28;19928;-69
2023/04/05 14:11:47;;;;;;;;;;;;;;;;;;4984658;28;20714;-64
2023/04/05 14:14:13;;;;;;;;;;;;;;;;;;4986676;28;19922;-67
2023/04/05 14:16:38;;;;;;;;;;;;;;;;;;4986082;28;20525;-67
2023/04/05 14:19:04;;;;;;;;;;;;;;;;;;4987387;28;19928;-68
2023/04/05 14:21:30;;;;;;;;;;;;;;;;;;4994584;28;20415;-69
2023/04/05 14:23:56;;;;;;;;;;;;;;;;;;4996810;28;20375;-70
2023/04/05 14:26:24;;;;;;;;;;;;;;;;;;4983535;28;20016;-69
2023/04/05 14:28:52;;;;;;;;;;;;;;;;;;4988337;28;20347;-69
2023/04/05 14:31:20;;;;;;;;;;;;;;;;;;4995148;28;19917;-70
2023/04/05 14:33:48;;;;;;;;;;;;;;;;;;4979957;28;20298;-69
2023/04/05 14:36:13;;;;;;;;;;;;;;;;;;4978265;28;19975;-68
2023/04/05 14:38:38;;;;;;;;;;;;;;;;;;4980852;28;19922;-69
2023/04/05 14:41:07;;;;;;;;;;;;;;;;;;4984842;28;19967;-69
2023/04/05 14:43:32;;;;;;;;;;;;;;;;;;4993132;28;20023;-69
2023/04/05 14:46:00;;;;;;;;;;;;;;;;;;4987503;28;20004;-69
2023/04/05 14:48:26;;;;;;;;;;;;;;;;;;4972731;28;20103;-70
2023/04/05 14:50:52;;;;;;;;;;;;;;;;;;4987379;28;19917;-70
2023/04/05 14:53:17;;;;;;;;;;;;;;;;;;5000975;28;19918;-69
2023/04/05 14:55:42;;;;;;;;;;;;;;;;;;4985262;28;19925;-68
2023/04/05 14:58:10;;;;;;;;;;;;;;;;;;4988070;28;19921;-69
2023/04/05 15:00:37;;;;;;;;;;;;;;;;;;4990703;28;19999;-69
2023/04/05 15:03:05;;;;;;;;;;;;;;;;;;4979760;28;20843;-69
2023/04/05 15:05:31;;;;;;;;;;;;;;;;;;4985882;28;20127;-67
2023/04/05 15:07:58;;;;;;;;;;;;;;;;;;4988730;28;20393;-69
2023/04/05 15:10:24;;;;;;;;;;;;;;;;;;4984198;28;19922;-70
2023/04/05 15:12:52;;;;;;;;;;;;;;;;;;4989294;28;19941;-70
2023/04/05 15:15:20;;;;;;;;;;;;;;;;;;4993910;28;19925;-69
2023/04/05 15:17:47;;;;;;;;;;;;;;;;;;4985805;28;20311;-70
2023/04/05 15:20:15;;;;;;;;;;;;;;;;;;4986965;28;19948;-70
2023/04/05 15:22:41;;;;;;;;;;;;;;;;;;4988043;28;19974;-70
2023/04/05 15:25:06;;;;;;;;;;;;;;;;;;4976868;28;19928;-69
2023/04/05 15:27:31;;;;;;;;;;;;;;;;;;4976031;28;19918;-69
2023/04/05 15:29:59;;;;;;;;;;;;;;;;;;4973439;28;20008;-71
2023/04/05 15:32:24;;;;;;;;;;;;;;;;;;4986237;28;19963;-70
2023/04/05 15:34:53;;;;;;;;;;;;;;;;;;4985411;28;19925;-68
2023/04/05 15:37:23;;;;;;;;;;;;;;;;;;4987758;28;20769;-70
2023/04/05 15:39:51;;;;;;;;;;;;;;;;;;4987755;28;19983;-70
2023/04/05 15:42:17;;;;;;;;;;;;;;;;;;4986503;28;20365;-71
2023/04/05 15:44:42;;;;;;;;;;;;;;;;;;4989695;28;21644;-70
2023/04/05 15:47:09;;;;;;;;;;;;;;;;;;4994243;28;19945;-69
2023/04/05 15:49:34;;;;;;;;;;;;;;;;;;4989975;28;19921;-69
2023/04/05 15:52:03;;;;;;;;;;;;;;;;;;4986574;28;19964;-68
2023/04/05 15:54:30;;;;;;;;;;;;;;;;;;4991450;28;20039;-69
2023/04/05 15:56:56;;;;;;;;;;;;;;;;;;4986172;28;20347;-69
2023/04/05 15:59:22;;;;;;;;;;;;;;;;;;4992765;28;19913;-68
2023/04/05 16:01:49;;;;;;;;;;;;;;;;;;4985774;28;19928;-68
2023/04/05 16:04:21;;;;;;;;;;;;;;;;;;4993885;28;19936;-68
2023/04/05 16:06:49;;;;;;;;;;;;;;;;;;4977972;28;19952;-69
2023/04/05 16:09:14;;;;;;;;;;;;;;;;;;4992384;28;19971;-69
2023/04/05 16:11:43;;;;;;;;;;;;;;;;;;4991330;28;20015;-69
2023/04/05 16:14:08;;;;;;;;;;;;;;;;;;4994633;28;19928;-69
2023/04/05 16:16:36;;;;;;;;;;;;;;;;;;4992064;28;20304;-69
2023/04/05 16:19:04;;;;;;;;;;;;;;;;;;4996363;28;19921;-68
2023/04/05 16:21:31;;;;;;;;;;;;;;;;;;5001745;28;20085;-68
2023/04/05 16:24:02;;;;;;;;;;;;;;;;;;4992692;28;20078;-69
2023/04/05 16:26:27;;;;;;;;;;;;;;;;;;5000668;28;19976;-69
2023/04/05 16:28:52;;;;;;;;;;;;;;;;;;4992655;28;19916;-68
2023/04/05 16:31:20;;;;;;;;;;;;;;;;;;4998627;28;19932;-68
2023/04/05 16:33:48;;;;;;;;;;;;;;;;;;4979304;28;20296;-68
2023/04/05 16:36:14;;;;;;;;;;;;;;;;;;4976930;28;19928;-70
2023/04/05 16:38:41;;;;;;;;;;;;;;;;;;4992800;28;20421;-69
2023/04/05 16:41:06;;;;;;;;;;;;;;;;;;4991976;28;20308;-69
2023/04/05 16:43:34;;;;;;;;;;;;;;;;;;4991881;28;19917;-69